Time;durP1;ratioP1;P1;durP2;ratioP2;P2;SDS_P1;SDS_P2;PMS_P1;PMS_P2;Temp;Humidity;BMP_temperature;BMP_pressure;BME280_temperature;BME280_humidity;BME280_pressure;Samples;Min_cycle;Max_cycle;Signal;HPM_P1;HPM_P2
2021/04/13 04:16:33;;;;;;;7.75;6.45;;;;;;;-1.10;89.79;100072.00;5446009;23;20110;-73
2021/04/13 04:19:16;;;;;;;8.55;6.60;;;;;;;-1.13;89.21;100072.69;4953647;28;20042;-72
2021/04/13 04:21:45;;;;;;;10.45;6.35;;;;;;;-1.23;89.05;100079.78;4954888;28;20108;-72
2021/04/13 04:24:10;;;;;;;10.20;6.97;;;;;;;-1.17;90.25;100075.88;4954737;28;20028;-72
2021/04/13 04:26:47;;;;;;;10.85;7.10;;;;;;;-1.36;89.78;100071.53;4966461;28;20385;-72
2021/04/13 04:29:29;;;;;;;10.65;6.53;;;;;;;-1.41;89.84;100072.97;4973816;28;20030;-72
2021/04/13 04:31:56;;;;;;;10.25;6.90;;;;;;;-0.97;91.49;100079.41;4973415;28;20112;-72
2021/04/13 04:34:21;;;;;;;14.02;7.43;;;;;;;-1.18;89.99;100083.44;4959669;28;20061;-71
2021/04/13 04:36:49;;;;;;;9.23;6.90;;;;;;;-1.12;89.51;100083.72;4993205;28;20106;-71
2021/04/13 04:39:40;;;;;;;10.43;6.88;;;;;;;-1.35;89.40;100090.25;4993077;28;20050;-71
2021/04/13 04:42:30;;;;;;;10.02;6.63;;;;;;;-1.39;89.61;100089.19;4991019;28;20057;-71
2021/04/13 04:45:13;;;;;;;11.68;7.53;;;;;;;-1.53;90.10;100102.00;4991884;28;20368;-70
2021/04/13 04:47:39;;;;;;;9.75;7.18;;;;;;;-1.52;89.95;100096.13;4993151;28;20089;-70
2021/04/13 04:50:06;;;;;;;10.93;8.20;;;;;;;-1.55;90.05;100096.81;4992942;28;20026;-70
2021/04/13 04:52:32;;;;;;;9.40;6.63;;;;;;;-1.59;90.52;100100.03;4991669;28;20438;-71
2021/04/13 04:54:57;;;;;;;9.18;7.15;;;;;;;-1.18;91.62;100103.78;4992927;28;20034;-71
2021/04/13 04:57:22;;;;;;;8.82;6.78;;;;;;;-1.32;89.58;100101.41;4992936;28;20026;-71
2021/04/13 04:59:48;;;;;;;11.25;7.35;;;;;;;-1.39;89.26;100099.38;4992640;28;20022;-71
2021/04/13 05:02:13;;;;;;;10.93;7.05;;;;;;;-1.42;89.59;100103.41;4992795;28;20080;-71
2021/04/13 05:04:38;;;;;;;13.68;8.70;;;;;;;-1.43;89.77;100106.75;4992824;28;20069;-71
2021/04/13 05:07:04;;;;;;;11.48;8.82;;;;;;;-1.48;89.92;100118.38;4992743;28;20282;-71
2021/04/13 05:09:30;;;;;;;15.55;8.95;;;;;;;-1.54;90.42;100124.00;4992703;28;20042;-68
2021/04/13 05:11:55;;;;;;;16.23;8.80;;;;;;;-1.54;90.05;100126.53;4992648;28;20057;-68
2021/04/13 05:14:20;;;;;;;10.40;8.00;;;;;;;-1.47;90.00;100137.88;4992708;28;20037;-68
2021/04/13 05:16:45;;;;;;;18.83;7.93;;;;;;;-0.93;91.14;100124.53;4992524;28;20033;-68
2021/04/13 05:19:11;;;;;;;13.10;8.27;;;;;;;-0.66;91.63;100131.78;4992511;28;20041;-68
2021/04/13 05:21:36;;;;;;;12.10;8.00;;;;;;;-0.97;89.12;100135.34;4991388;28;20026;-68
2021/04/13 05:24:02;;;;;;;9.05;7.72;;;;;;;-0.88;88.98;100133.25;4991180;28;20037;-68
2021/04/13 05:26:27;;;;;;;10.82;7.55;;;;;;;-0.89;87.97;100141.69;4992579;28;20149;-68
2021/04/13 05:28:52;;;;;;;13.65;6.75;;;;;;;-0.82;88.73;100140.34;4992565;28;20030;-68
2021/04/13 05:31:18;;;;;;;12.63;7.40;;;;;;;-0.67;87.88;100145.31;4991384;28;20180;-71
2021/04/13 05:33:43;;;;;;;11.10;6.90;;;;;;;-0.47;87.57;100148.81;4992359;28;20122;-71
2021/04/13 05:36:09;;;;;;;7.53;6.63;;;;;;;-0.36;85.64;100148.53;4992329;28;20035;-71
2021/04/13 05:38:37;;;;;;;9.15;6.90;;;;;;;0.04;86.63;100137.63;4992629;28;20073;-71
2021/04/13 05:41:04;;;;;;;8.73;6.43;;;;;;;0.27;84.81;100145.47;4992470;28;20518;-70
2021/04/13 05:43:30;;;;;;;10.27;6.65;;;;;;;0.02;84.12;100152.00;4994551;28;20399;-70
2021/04/13 05:45:58;;;;;;;8.93;7.47;;;;;;;0.16;84.02;100148.41;4996310;28;20026;-70
2021/04/13 05:48:25;;;;;;;11.32;8.18;;;;;;;-0.19;84.20;100154.44;4996243;28;20022;-70
2021/04/13 05:50:51;;;;;;;10.30;7.20;;;;;;;-0.28;85.90;100157.41;4996158;28;20116;-69
2021/04/13 05:53:17;;;;;;;9.82;8.10;;;;;;;0.00;84.90;100158.72;4996529;28;20379;-68
2021/04/13 05:55:42;;;;;;;8.63;6.93;;;;;;;0.03;84.21;100153.72;4996305;28;20034;-69
2021/04/13 05:58:21;;;;;;;18.77;6.85;;;;;;;0.54;81.75;100144.16;4996351;28;20030;-70
2021/04/13 06:00:49;;;;;;;10.75;7.75;;;;;;;0.69;81.28;100143.94;4996057;28;20081;-70
2021/04/13 06:03:17;;;;;;;14.30;8.73;;;;;;;0.76;80.40;100146.81;4991344;28;20023;-70
2021/04/13 06:05:42;;;;;;;14.15;7.85;;;;;;;0.83;80.55;100152.19;4992672;28;20373;-70
2021/04/13 06:08:10;;;;;;;12.63;7.10;;;;;;;0.85;80.30;100151.44;4994352;28;20073;-70
2021/04/13 06:10:35;;;;;;;10.95;7.38;;;;;;;0.85;80.37;100150.56;4994420;28;20030;-70
2021/04/13 06:13:01;;;;;;;12.43;6.85;;;;;;;1.00;79.86;100158.88;4995597;28;20479;-70
2021/04/13 06:15:29;;;;;;;7.63;6.35;;;;;;;1.27;79.25;100152.38;4995550;28;20026;-70
2021/04/13 06:17:54;;;;;;;10.32;7.32;;;;;;;1.38;78.94;100154.50;4996005;28;20383;-70
2021/04/13 06:20:21;;;;;;;12.02;6.68;;;;;;;1.57;77.96;100156.97;4995711;28;20022;-70
2021/04/13 06:22:48;;;;;;;8.15;6.97;;;;;;;1.63;77.45;100162.31;4995163;28;20398;-70
2021/04/13 06:25:18;;;;;;;17.90;8.93;;;;;;;1.76;76.82;100167.13;4995046;28;20036;-70
2021/04/13 06:27:44;;;;;;;13.85;7.93;;;;;;;1.78;77.73;100168.03;4994363;28;20050;-70
2021/04/13 06:30:11;;;;;;;11.05;7.82;;;;;;;2.32;75.11;100167.53;4995342;28;20061;-70
2021/04/13 06:32:37;;;;;;;11.10;7.18;;;;;;;2.39;74.32;100163.53;4993975;28;20388;-70
2021/04/13 06:35:03;;;;;;;13.75;8.05;;;;;;;2.91;74.23;100160.31;4995334;28;20037;-70
2021/04/13 06:37:28;;;;;;;9.70;6.80;;;;;;;2.65;74.41;100167.91;4995185;28;20509;-70
2021/04/13 06:39:55;;;;;;;14.25;7.82;;;;;;;2.72;73.20;100169.91;4993802;28;20018;-70
2021/04/13 06:42:34;;;;;;;11.40;9.30;;;;;;;2.79;73.58;100159.03;4990664;28;20106;-70
2021/04/13 06:45:10;;;;;;;10.57;7.80;;;;;;;2.43;73.99;100168.84;4995093;28;20069;-70
2021/04/13 06:48:03;;;;;;;11.23;7.93;;;;;;;3.34;73.84;100160.09;4995060;28;20029;-70
2021/04/13 06:50:35;;;;;;;8.95;6.43;;;;;;;4.37;67.56;100154.75;4993807;28;20077;-70
2021/04/13 06:53:02;;;;;;;12.43;7.20;;;;;;;5.14;64.57;100162.88;4994836;28;20029;-70
2021/04/13 06:55:46;;;;;;;12.52;7.25;;;;;;;5.70;62.54;100167.66;4992667;28;20030;-70
2021/04/13 06:58:53;;;;;;;12.02;6.53;;;;;;;7.71;55.91;100141.63;4994835;28;20566;-70
2021/04/13 07:01:27;;;;;;;11.30;6.88;;;;;;;8.08;54.72;100145.63;4982764;28;20038;-71
2021/04/13 07:04:31;;;;;;;12.80;6.75;;;;;;;8.93;52.99;100143.25;4994729;28;20033;-71
2021/04/13 07:07:05;;;;;;;11.77;6.93;;;;;;;10.46;49.31;100139.28;4942214;28;20027;-70
2021/04/13 07:09:39;;;;;;;10.32;6.45;;;;;;;11.48;44.96;100141.25;4963919;28;20192;-69
2021/04/13 07:12:11;;;;;;;11.02;6.50;;;;;;;11.50;45.14;100139.50;4979585;28;20044;-70
2021/04/13 07:14:46;;;;;;;11.23;6.85;;;;;;;11.59;45.33;100144.69;4994634;28;20031;-70
2021/04/13 07:17:16;;;;;;;11.60;7.30;;;;;;;11.87;44.06;100139.53;4977707;28;20080;-69
2021/04/13 07:19:58;;;;;;;9.07;6.57;;;;;;;12.52;43.38;100145.41;4994718;28;20023;-70
2021/04/13 07:22:33;;;;;;;13.70;7.28;;;;;;;12.22;42.97;100143.78;4994359;28;20030;-72
2021/04/13 07:25:29;;;;;;;11.35;7.07;;;;;;;12.17;43.62;100142.94;4986242;28;20036;-70
2021/04/13 07:27:59;;;;;;;10.40;6.65;;;;;;;12.40;42.93;100146.34;4980663;28;20037;-70
2021/04/13 07:30:45;;;;;;;12.90;6.95;;;;;;;11.67;44.85;100147.31;4985679;28;20539;-72
2021/04/13 07:33:21;;;;;;;12.98;7.78;;;;;;;10.98;46.70;100149.84;4983282;28;20046;-72
2021/04/13 07:35:47;;;;;;;9.77;6.85;;;;;;;10.58;47.46;100158.31;4982074;28;20113;-70
2021/04/13 07:38:21;;;;;;;10.88;7.07;;;;;;;10.60;47.09;100152.31;4983002;28;20092;-70
2021/04/13 07:40:50;;;;;;;8.60;7.70;;;;;;;11.14;46.00;100145.53;4984571;28;20030;-72
2021/04/13 07:43:21;;;;;;;9.80;7.55;;;;;;;12.20;43.38;100141.19;4985232;28;20038;-72
2021/04/13 07:46:10;;;;;;;10.88;7.57;;;;;;;12.80;41.71;100149.63;4981824;28;20034;-72
2021/04/13 07:48:55;;;;;;;9.85;7.60;;;;;;;12.78;42.16;100142.72;4981546;28;20038;-73
2021/04/13 07:51:40;;;;;;;14.18;8.43;;;;;;;9.74;49.64;100158.66;4999322;28;20037;-74
2021/04/13 07:54:24;;;;;;;8.05;6.32;;;;;;;12.70;41.06;100144.47;4979422;28;20113;-71
2021/04/13 07:57:00;;;;;;;7.93;6.00;;;;;;;13.01;40.28;100146.06;4982932;28;21283;-72
2021/04/13 07:59:55;;;;;;;6.55;5.47;;;;;;;9.94;44.87;100151.91;4984868;28;20026;-71
2021/04/13 08:02:21;;;;;;;12.30;6.50;;;;;;;14.53;37.96;100135.19;4984936;28;20037;-71
2021/04/13 08:04:50;;;;;;;13.57;8.18;;;;;;;14.74;36.75;100127.97;4978014;28;20026;-70
2021/04/13 08:07:22;;;;;;;15.20;10.18;;;;;;;15.36;35.05;100131.41;4979545;28;20034;-70
2021/04/13 08:10:16;;;;;;;7.40;5.35;;;;;;;14.18;35.04;100140.78;4980658;28;20113;-73
2021/04/13 08:13:07;;;;;;;7.97;5.07;;;;;;;12.87;37.24;100150.47;4983752;28;20060;-72
2021/04/13 08:15:38;;;;;;;6.60;5.68;;;;;;;8.23;47.21;100163.06;4983765;28;20752;-71
2021/04/13 08:18:10;;;;;;;5.13;4.65;;;;;;;13.65;36.12;100143.91;4980330;28;20039;-72
2021/04/13 08:20:40;;;;;;;6.03;4.70;;;;;;;14.69;33.67;100138.47;4984309;28;20105;-73
2021/04/13 08:23:11;;;;;;;5.13;4.60;;;;;;;12.82;36.26;100142.69;4982853;28;20085;-73
2021/04/13 08:25:46;;;;;;;8.23;5.07;;;;;;;15.97;33.27;100121.72;4983626;28;20033;-70
2021/04/13 08:28:12;;;;;;;6.20;4.80;;;;;;;10.36;39.35;100155.66;4980057;28;20120;-70
2021/04/13 08:34:11;;;;;;;8.35;6.00;;;;;;;14.57;33.89;100134.28;4981092;28;20084;-69
2021/04/13 08:36:48;;;;;;;10.50;5.97;;;;;;;10.82;40.92;100153.22;4980914;28;20034;-69
2021/04/13 08:39:56;;;;;;;7.45;6.25;;;;;;;9.12;46.77;100154.66;4984541;28;20049;-67
2021/04/13 08:42:30;;;;;;;7.95;6.55;;;;;;;7.10;50.09;100163.78;4949720;28;20038;-70
2021/04/13 08:45:05;;;;;;;8.80;6.53;;;;;;;8.84;47.12;100158.66;4979865;28;20026;-70
2021/04/13 08:47:58;;;;;;;8.43;6.40;;;;;;;9.53;43.06;100157.66;4978480;28;20752;-70
2021/04/13 08:50:39;;;;;;;8.63;6.38;;;;;;;7.13;49.82;100166.44;4983043;28;20042;-70
2021/04/13 08:53:34;;;;;;;8.13;7.25;;;;;;;7.11;49.87;100168.13;4982684;28;20034;-70
2021/04/13 08:56:22;;;;;;;6.55;5.80;;;;;;;9.65;43.18;100150.81;4980988;28;20057;-70
2021/04/13 08:58:57;;;;;;;7.90;6.00;;;;;;;9.85;42.58;100149.25;4974427;28;20084;-68
2021/04/13 09:01:44;;;;;;;6.80;6.10;;;;;;;11.73;37.54;100146.44;4984115;28;20423;-70
2021/04/13 09:04:29;;;;;;;8.38;5.55;;;;;;;13.96;35.44;100134.91;4979636;28;20031;-70
2021/04/13 09:07:05;;;;;;;5.47;4.97;;;;;;;15.66;31.70;100130.09;4977918;28;20029;-70
2021/04/13 09:09:55;;;;;;;5.40;4.80;;;;;;;14.46;32.88;100130.91;4984128;28;20022;-69
2021/04/13 09:13:01;;;;;;;5.85;4.65;;;;;;;11.82;36.98;100142.13;4983934;28;20030;-69
2021/04/13 09:15:28;;;;;;;4.95;4.45;;;;;;;13.41;34.79;100135.41;4977244;28;20491;-69
2021/04/13 09:18:09;;;;;;;5.45;4.10;;;;;;;12.41;35.03;100136.78;4976333;28;20030;-69
2021/04/13 09:20:40;;;;;;;6.80;5.03;;;;;;;8.06;41.72;100154.19;4983871;28;20109;-68
2021/04/13 09:23:05;;;;;;;6.40;5.80;;;;;;;6.98;46.84;100166.16;4981949;28;20050;-70
2021/04/13 09:25:41;;;;;;;6.00;5.45;;;;;;;11.38;38.22;100134.31;4979860;28;20409;-70
2021/04/13 09:28:22;;;;;;;6.82;5.25;;;;;;;8.81;41.78;100152.63;4979384;28;20027;-68
2021/04/13 09:30:50;;;;;;;8.18;5.65;;;;;;;8.85;41.41;100152.69;4983794;28;20246;-69
2021/04/13 09:33:18;;;;;;;6.72;5.25;;;;;;;9.08;43.68;100152.03;4983591;28;20034;-68
2021/04/13 09:35:53;;;;;;;7.07;6.30;;;;;;;11.73;41.50;100144.69;4979856;28;20034;-69
2021/04/13 09:38:38;;;;;;;10.18;6.97;;;;;;;12.75;38.04;100132.31;4977662;28;20037;-69
2021/04/13 09:41:16;;;;;;;29.30;19.95;;;;;;;8.42;44.65;100144.41;4983918;28;20041;-70
2021/04/13 09:44:20;;;;;;;6.18;5.60;;;;;;;6.61;46.57;100150.84;4977551;28;20114;-70
2021/04/13 09:47:02;;;;;;;7.53;6.50;;;;;;;8.40;44.85;100146.09;4979824;28;20034;-69
2021/04/13 09:49:52;;;;;;;8.93;6.28;;;;;;;9.84;43.16;100132.00;4980304;28;20128;-69
2021/04/13 09:52:38;;;;;;;10.70;6.38;;;;;;;8.26;46.90;100137.25;4983529;28;20031;-69
2021/04/13 09:55:28;;;;;;;7.63;6.38;;;;;;;7.52;46.18;100149.94;4983585;28;20037;-69
2021/04/13 09:58:15;;;;;;;7.78;6.13;;;;;;;8.11;47.75;100139.63;4979830;28;20655;-69
2021/04/13 10:00:48;;;;;;;7.32;6.25;;;;;;;6.87;48.02;100143.66;4983473;28;20030;-70
2021/04/13 10:03:35;;;;;;;6.00;5.40;;;;;;;8.18;46.28;100133.72;4979891;28;20054;-69
2021/04/13 10:06:01;;;;;;;7.63;5.30;;;;;;;8.79;44.58;100129.31;4981534;28;20060;-69
2021/04/13 10:08:33;;;;;;;6.05;5.43;;;;;;;10.38;39.77;100119.38;4978400;28;20089;-69
2021/04/13 10:11:08;;;;;;;5.93;5.28;;;;;;;10.12;38.48;100114.91;4983276;28;20480;-69
2021/04/13 10:13:33;;;;;;;6.00;5.40;;;;;;;9.34;40.16;100129.03;4983365;28;20073;-69
2021/04/13 10:16:04;;;;;;;6.60;5.78;;;;;;;7.61;45.34;100135.47;4981217;28;20724;-69
2021/04/13 10:18:48;;;;;;;9.57;6.10;;;;;;;7.39;46.68;100131.66;4978270;28;20034;-69
2021/04/13 10:21:49;;;;;;;8.13;5.72;;;;;;;6.74;46.88;100143.38;4983312;28;20597;-70
2021/04/13 10:24:20;;;;;;;7.90;6.22;;;;;;;7.01;46.08;100135.28;4941958;28;20088;-70
2021/04/13 10:27:32;;;;;;;5.47;5.00;;;;;;;7.73;42.72;100124.47;4973534;28;20053;-70
2021/04/13 10:30:26;;;;;;;7.28;4.88;;;;;;;8.54;39.74;100124.72;4986413;28;20035;-72
2021/04/13 10:33:06;;;;;;;4.60;4.18;;;;;;;10.52;36.76;100108.19;4985674;28;20034;-72
2021/04/13 10:35:54;;;;;;;4.75;4.25;;;;;;;15.16;30.02;100074.28;4982659;28;20457;-72
2021/04/13 10:38:48;;;;;;;3.53;3.33;;;;;;;17.28;26.74;100084.06;4981963;28;20026;-71
2021/04/13 10:41:32;;;;;;;4.13;3.45;;;;;;;13.66;30.55;100101.34;4986641;28;20442;-72
2021/04/13 10:44:25;;;;;;;4.43;3.67;;;;;;;10.84;36.10;100110.03;4984458;28;20108;-73
2021/04/13 10:47:02;;;;;;;4.60;4.10;;;;;;;8.62;39.89;100130.88;4982334;28;20443;-72
2021/04/13 10:50:06;;;;;;;5.30;4.30;;;;;;;7.26;42.69;100132.31;4986289;28;20030;-72
2021/04/13 10:53:09;;;;;;;5.18;4.68;;;;;;;7.92;42.52;100121.31;4985687;28;20026;-72
2021/04/13 10:56:04;;;;;;;4.85;4.20;;;;;;;11.27;35.91;100097.13;4985419;28;20161;-72
2021/04/13 10:58:45;;;;;;;5.72;4.40;;;;;;;10.84;35.82;100104.84;4980598;28;20053;-72
2021/04/13 11:01:47;;;;;;;4.82;3.95;;;;;;;12.04;32.75;100085.81;4986339;28;20498;-71
2021/04/13 11:04:46;;;;;;;4.03;3.60;;;;;;;13.43;30.79;100078.97;4986217;28;20113;-72
2021/04/13 11:07:41;;;;;;;3.72;3.20;;;;;;;12.64;30.90;100076.91;4981198;28;20034;-71
2021/04/13 11:10:17;;;;;;;3.78;3.33;;;;;;;11.47;28.63;100087.63;4984379;28;20502;-72
2021/04/13 11:13:20;;;;;;;2.90;2.70;;;;;;;18.11;23.27;100054.78;4984990;28;21082;-71
2021/04/13 11:16:11;;;;;;;5.40;3.05;;;;;;;16.56;23.99;100067.34;4984635;28;20101;-72
2021/04/13 11:18:58;;;;;;;3.30;3.00;;;;;;;14.78;23.29;100069.63;4964577;28;20126;-72
2021/04/13 11:21:42;;;;;;;3.70;3.40;;;;;;;12.77;27.44;100073.38;4984734;28;20574;-71
2021/04/13 11:24:37;;;;;;;3.90;3.60;;;;;;;13.77;29.70;100068.22;4985709;28;20026;-71
2021/04/13 11:27:38;;;;;;;4.97;3.63;;;;;;;13.48;28.15;100063.31;4979947;28;20906;-70
2021/04/13 11:30:23;;;;;;;3.55;3.25;;;;;;;12.96;29.06;100069.78;4983910;28;20030;-71
2021/04/13 11:33:00;;;;;;;3.45;3.15;;;;;;;13.31;28.20;100066.06;4984538;28;20472;-71
2021/04/13 11:35:35;;;;;;;5.85;4.30;;;;;;;9.71;35.58;100083.56;4984185;28;20034;-71
2021/04/13 11:38:10;;;;;;;6.78;4.68;;;;;;;9.02;37.79;100089.06;4981535;28;20030;-71
2021/04/13 11:40:38;;;;;;;5.70;5.10;;;;;;;7.88;40.52;100078.25;4984148;28;20084;-72
2021/04/13 11:43:05;;;;;;;5.10;4.55;;;;;;;8.29;40.78;100085.66;5000045;28;20034;-71
2021/04/13 11:45:43;;;;;;;8.27;4.50;;;;;;;8.64;39.46;100072.31;4982655;28;20037;-72
2021/04/13 11:48:18;;;;;;;5.70;4.80;;;;;;;7.95;41.23;100082.66;4981521;28;20435;-71
2021/04/13 11:51:01;;;;;;;6.40;5.35;;;;;;;7.31;41.33;100083.41;4985232;28;20609;-73
2021/04/13 11:53:31;;;;;;;6.22;4.95;;;;;;;6.66;41.31;100081.41;4985151;28;20503;-71
2021/04/13 11:55:57;;;;;;;7.40;4.55;;;;;;;8.87;38.05;100075.16;4985155;28;20080;-72
2021/04/13 11:58:26;;;;;;;4.47;3.92;;;;;;;11.28;32.80;100052.16;4980198;28;20541;-71
2021/04/13 12:01:18;;;;;;;5.97;4.00;;;;;;;11.20;31.51;100059.06;4980470;28;20022;-71
2021/04/13 12:03:59;;;;;;;4.03;3.67;;;;;;;8.46;40.24;100081.63;4984909;28;20066;-72
2021/04/13 12:06:49;;;;;;;3.40;3.10;;;;;;;9.08;38.55;100089.97;4984051;28;20026;-72
2021/04/13 12:10:02;;;;;;;3.38;3.15;;;;;;;7.49;40.93;100094.00;4984969;28;20042;-71
2021/04/13 12:12:31;;;;;;;3.53;3.10;;;;;;;7.37;40.64;100089.53;4984056;28;20032;-72
2021/04/13 12:15:03;;;;;;;3.15;2.83;;;;;;;7.32;41.67;100093.75;4982885;28;20162;-71
2021/04/13 12:17:34;;;;;;;3.67;3.20;;;;;;;7.91;42.19;100083.44;4979662;28;20034;-71
2021/04/13 12:20:28;;;;;;;5.57;3.88;;;;;;;8.36;39.56;100077.16;4983454;28;20107;-74
2021/04/13 12:23:14;;;;;;;4.57;3.60;;;;;;;6.88;41.06;100088.69;4981616;28;20109;-72
2021/04/13 12:25:44;;;;;;;4.05;3.55;;;;;;;7.76;42.46;100080.66;4982187;28;20034;-73
2021/04/13 12:28:34;;;;;;;5.13;3.80;;;;;;;8.04;40.97;100078.47;4984826;28;20023;-73
2021/04/13 12:31:05;;;;;;;4.80;3.30;;;;;;;8.32;41.06;100075.38;4979148;28;20084;-73
2021/04/13 12:33:30;;;;;;;4.22;3.70;;;;;;;9.12;39.59;100071.06;4981774;28;20057;-72
2021/04/13 12:36:05;;;;;;;4.53;3.75;;;;;;;9.57;39.01;100059.31;4982802;28;20064;-73
2021/04/13 12:38:45;;;;;;;4.32;3.75;;;;;;;10.21;39.92;100051.94;4982957;28;20041;-73
2021/04/13 12:41:15;;;;;;;;;;;;;;;10.27;38.03;100049.38;4984622;28;20121;-73
2021/04/13 12:44:01;;;;;;;4.72;3.92;;;;;;;10.38;37.70;100042.50;4978928;28;20008;-74
2021/04/13 12:46:38;;;;;;;7.07;4.03;;;;;;;10.38;38.11;100047.69;4979256;28;20082;-73
2021/04/13 12:49:13;;;;;;;3.97;3.67;;;;;;;10.59;37.28;100040.84;4981597;28;20027;-73
2021/04/13 12:51:55;;;;;;;3.78;3.40;;;;;;;10.55;38.40;100043.44;4979874;28;20042;-73
2021/04/13 12:54:39;;;;;;;7.05;3.75;;;;;;;10.89;36.27;100035.72;4980644;28;20030;-73
2021/04/13 12:57:06;;;;;;;7.70;3.78;;;;;;;11.15;36.88;100024.47;4984101;28;20037;-73
2021/04/13 12:59:33;;;;;;;5.00;3.75;;;;;;;11.30;35.18;100024.47;4982551;28;20037;-73
2021/04/13 13:01:59;;;;;;;5.22;4.05;;;;;;;11.74;35.84;100026.13;4981902;28;20407;-73
2021/04/13 13:04:34;;;;;;;3.75;3.28;;;;;;;11.82;34.77;100021.81;4981998;28;20026;-73
2021/04/13 13:07:00;;;;;;;3.72;3.20;;;;;;;11.29;36.43;100020.16;4983775;28;20507;-73
2021/04/13 13:09:30;;;;;;;4.20;3.50;;;;;;;10.99;36.31;100021.88;4981272;28;20069;-74
2021/04/13 13:12:03;;;;;;;3.70;3.33;;;;;;;10.08;36.18;100026.84;4980826;28;20084;-74
2021/04/13 13:14:31;;;;;;;5.40;3.03;;;;;;;9.36;39.42;100042.81;4978041;28;20120;-74
2021/04/13 13:16:58;;;;;;;7.75;3.65;;;;;;;6.84;44.56;100045.69;4979420;28;20041;-73
2021/04/13 13:19:47;;;;;;;5.30;3.47;;;;;;;6.78;46.37;100050.75;4979226;28;20022;-74
2021/04/13 13:22:16;;;;;;;4.20;3.25;;;;;;;7.50;46.64;100045.91;4983802;28;20113;-73
2021/04/13 13:24:42;;;;;;;6.00;2.70;;;;;;;7.03;47.14;100043.44;4979686;28;20038;-74
2021/04/13 13:27:17;;;;;;;3.40;2.78;;;;;;;7.29;46.98;100046.41;4983159;28;20059;-74
2021/04/13 13:29:44;;;;;;;4.45;2.58;;;;;;;7.18;46.24;100035.94;4980728;28;20058;-74
2021/04/13 13:32:11;;;;;;;3.80;2.33;;;;;;;7.47;46.39;100034.66;4979291;28;20030;-74
2021/04/13 13:34:37;;;;;;;3.05;2.70;;;;;;;8.20;45.34;100024.44;4979512;28;20496;-74
2021/04/13 13:37:07;;;;;;;3.00;2.42;;;;;;;8.77;42.35;100026.81;4982172;28;20027;-75
2021/04/13 13:39:32;;;;;;;3.25;2.60;;;;;;;8.86;40.77;100027.75;4981315;28;20031;-74
2021/04/13 13:42:01;;;;;;;2.70;2.45;;;;;;;9.09;39.86;100020.22;4978072;28;20037;-74
2021/04/13 13:44:41;;;;;;;3.88;2.30;;;;;;;10.25;37.44;100017.41;4983409;28;20169;-73
2021/04/13 13:47:20;;;;;;;3.63;2.35;;;;;;;10.42;37.46;100007.97;4981468;28;20026;-73
2021/04/13 13:49:50;;;;;;;4.88;2.30;;;;;;;9.81;36.53;100009.44;4982155;28;20030;-73
2021/04/13 13:52:35;;;;;;;2.63;2.42;;;;;;;11.04;35.00;99999.41;4979721;28;20034;-74
2021/04/13 13:55:25;;;;;;;4.47;3.00;;;;;;;11.63;33.58;99988.94;4979753;28;20498;-74
2021/04/13 13:58:10;;;;;;;2.42;2.22;;;;;;;11.10;32.67;99984.72;4982387;28;20098;-75
2021/04/13 14:00:55;;;;;;;3.13;2.20;;;;;;;11.33;32.19;99982.97;4979941;28;20456;-75
2021/04/13 14:03:21;;;;;;;2.33;1.75;;;;;;;11.47;31.75;99989.00;4979788;28;20050;-75
2021/04/13 14:05:51;;;;;;;46.78;20.40;;;;;;;11.31;32.53;99987.28;4983292;28;20092;-74
2021/04/13 14:08:21;;;;;;;3.00;2.15;;;;;;;10.89;33.13;99989.03;4984312;28;20034;-74
2021/04/13 14:10:47;;;;;;;4.57;2.75;;;;;;;9.66;36.70;99992.97;4983716;28;20555;-74
2021/04/13 14:13:31;;;;;;;6.25;2.30;;;;;;;8.96;39.02;99993.38;4986084;28;20165;-74
2021/04/13 14:15:57;;;;;;;4.28;2.78;;;;;;;8.86;36.44;99999.34;4983448;28;20066;-74
2021/04/13 14:18:26;;;;;;;5.57;2.25;;;;;;;9.02;37.73;99997.72;4984482;28;20398;-74
2021/04/13 14:21:04;;;;;;;3.10;2.28;;;;;;;9.88;35.65;99986.19;4983598;28;20031;-74
2021/04/13 14:23:29;;;;;;;4.93;2.10;;;;;;;9.35;35.86;99986.78;4985288;28;20042;-74
2021/04/13 14:25:55;;;;;;;3.10;2.45;;;;;;;9.60;35.19;99981.75;4984391;28;20381;-74
2021/04/13 14:28:24;;;;;;;3.10;2.10;;;;;;;10.50;32.83;99977.78;4984603;28;20031;-76
2021/04/13 14:30:50;;;;;;;2.40;2.17;;;;;;;10.83;32.85;99978.69;4983178;28;20113;-75
2021/04/13 14:33:16;;;;;;;3.03;1.80;;;;;;;11.25;31.66;99972.59;4985535;28;20906;-74
2021/04/13 14:35:42;;;;;;;2.08;1.92;;;;;;;11.80;32.24;99972.47;4980538;28;20060;-74
2021/04/13 14:38:12;;;;;;;2.60;2.40;;;;;;;11.82;29.95;99969.88;4986949;28;20077;-75
2021/04/13 14:40:37;;;;;;;3.22;2.55;;;;;;;11.31;29.68;99971.69;4983761;28;20022;-74
2021/04/13 14:43:03;;;;;;;4.25;2.33;;;;;;;10.75;30.45;99972.63;4982610;28;20459;-75
2021/04/13 14:45:31;;;;;;;6.10;2.45;;;;;;;11.28;30.78;99961.34;4985028;28;20069;-74
2021/04/13 14:48:01;;;;;;;2.35;2.00;;;;;;;11.68;29.49;99967.28;4985100;28;20082;-74
2021/04/13 14:50:30;;;;;;;3.92;2.42;;;;;;;10.16;30.04;99974.22;4986572;28;20755;-74
2021/04/13 14:52:55;;;;;;;3.05;2.60;;;;;;;11.59;30.29;99967.31;4980204;28;20126;-74
2021/04/13 14:55:23;;;;;;;4.45;3.00;;;;;;;11.26;30.80;99968.25;4986185;28;20034;-74
2021/04/13 14:58:12;;;;;;;3.58;2.90;;;;;;;10.35;31.31;99975.16;4981065;28;20030;-74
2021/04/13 15:00:38;;;;;;;3.40;2.40;;;;;;;10.84;31.43;99964.84;4983681;28;20387;-72
2021/04/13 15:03:07;;;;;;;6.40;3.13;;;;;;;11.34;31.91;99961.31;4982060;28;20038;-72
2021/04/13 15:05:32;;;;;;;3.00;2.70;;;;;;;11.59;30.80;99954.34;4985419;28;20045;-74
2021/04/13 15:07:59;;;;;;;2.85;2.47;;;;;;;12.05;31.53;99952.47;4981503;28;20034;-74
2021/04/13 15:10:28;;;;;;;4.13;2.95;;;;;;;11.71;31.41;99954.31;4983746;28;20034;-74
2021/04/13 15:12:53;;;;;;;3.78;3.38;;;;;;;9.32;34.30;99971.22;4982488;28;20027;-72
2021/04/13 15:15:19;;;;;;;4.28;3.33;;;;;;;10.04;33.62;99954.31;4934384;28;20051;-73
2021/04/13 15:17:44;;;;;;;3.78;3.42;;;;;;;10.05;32.63;99950.84;4965642;28;20027;-73
2021/04/13 15:20:13;;;;;;;4.10;2.88;;;;;;;10.96;34.27;99948.41;4963258;28;20023;-75
2021/04/13 15:22:38;;;;;;;3.70;3.10;;;;;;;10.41;32.85;99954.44;4962625;28;20041;-74
2021/04/13 15:25:09;;;;;;;3.35;3.05;;;;;;;9.30;34.57;99960.00;4964162;28;20031;-74
2021/04/13 15:27:35;;;;;;;3.42;3.00;;;;;;;8.80;35.24;99975.13;4963954;28;20046;-73
2021/04/13 15:30:02;;;;;;;7.32;2.83;;;;;;;8.81;35.85;99967.41;4960338;28;20520;-74
2021/04/13 15:32:29;;;;;;;5.40;2.63;;;;;;;8.93;36.85;99966.63;4964824;28;20113;-74
2021/04/13 15:34:59;;;;;;;3.20;2.63;;;;;;;8.88;37.59;99966.59;4912986;28;20039;-74
2021/04/13 15:37:26;;;;;;;;;;;;;;;8.59;37.99;99970.66;4964579;28;20113;-75
2021/04/13 15:39:56;;;;;;;4.75;2.63;;;;;;;8.33;38.54;99981.56;4960011;28;19918;-74
2021/04/13 15:42:26;;;;;;;3.85;2.67;;;;;;;7.99;37.59;99978.63;4961957;28;20078;-74
2021/04/13 15:45:02;;;;;;;5.78;2.70;;;;;;;7.63;39.21;99979.00;4910831;28;20051;-74
2021/04/13 15:47:29;;;;;;;4.60;2.88;;;;;;;7.42;39.58;99977.00;4960427;28;20027;-74
2021/04/13 15:49:54;;;;;;;5.85;2.60;;;;;;;7.70;40.16;99969.66;4959904;28;20043;-75
2021/04/13 15:52:21;;;;;;;2.88;2.65;;;;;;;8.01;39.59;99975.19;4962572;28;20027;-74
2021/04/13 15:54:47;;;;;;;2.58;2.28;;;;;;;7.86;40.21;99966.41;4959661;28;20050;-75
2021/04/13 15:57:12;;;;;;;3.00;2.70;;;;;;;7.92;40.28;99975.94;4961025;28;20027;-74
2021/04/13 15:59:41;;;;;;;6.25;3.10;;;;;;;8.04;39.68;99963.19;4962210;28;20955;-74
2021/04/13 16:02:06;;;;;;;3.67;2.42;;;;;;;8.43;39.10;99965.34;4959657;28;20038;-73
2021/04/13 16:04:32;;;;;;;6.55;2.45;;;;;;;8.84;39.16;99957.09;4914272;28;20038;-74
2021/04/13 16:06:57;;;;;;;4.68;2.58;;;;;;;9.22;38.17;99943.56;4961239;28;20440;-74
2021/04/13 16:09:22;;;;;;;2.67;2.47;;;;;;;9.59;35.67;99954.13;4959585;28;20039;-73
2021/04/13 16:11:48;;;;;;;2.40;2.20;;;;;;;9.05;37.32;99951.22;4959644;28;20031;-73
2021/04/13 16:14:14;;;;;;;3.67;2.58;;;;;;;9.10;37.03;99948.69;4862296;28;20508;-72
2021/04/13 16:16:41;;;;;;;3.22;2.40;;;;;;;8.96;37.39;99954.59;4871837;28;20074;-71
2021/04/13 16:19:06;;;;;;;3.38;3.00;;;;;;;9.04;37.84;99946.88;4864460;28;20042;-72
2021/04/13 16:21:32;;;;;;;3.05;2.60;;;;;;;9.17;36.37;99942.69;4863511;28;20034;-71
2021/04/13 16:23:59;;;;;;;4.10;2.90;;;;;;;9.17;37.41;99943.53;4807785;28;20035;-71